Latest Weather Observations for Parafield

IDS60901

Issued at 8:31 pm CST Thursday 25 April 2024 (issued every 10 minutes, with the page automatically refreshed every 10 minutes)

About weather observations | Map of Adelaide area stations | Latest observations for Adelaide area | Other Formats
Station Details ID: 023013 Name: PARAFIELD AIRPORT Lat: -34.80 Lon: 138.63 Height: 9.5 m
Data from the previous 72 hours. | See also: Recent months at Parafield
Date/Time
CST
Temp
°C
App
Temp
°C
Dew
Point
°C
Rel
Hum
%
Delta-T
°C
Wind Press
QNH
hPa
Press
MSL
hPa
Rain since
9am
mm
Dir  Spd
km/h
Gust
km/h
Spd
kts
Gust
kts
25/08:30pm 11.6 9.8 8.1 79 1.7 S 7 7 4 4 1029.0 1028.9 0.0
25/08:00pm 11.4 8.8 7.9 79 1.7 SSW 11 15 6 8 1028.9 1028.8 0.0
25/07:30pm 11.8 9.2 7.7 76 2.0 S 11 15 6 8 1028.8 1028.7 0.0
25/07:00pm 13.0 10.1 8.1 72 2.4 S 13 17 7 9 1028.6 1028.5 0.0
25/06:30pm 14.6 11.4 8.3 66 3.1 SSE 15 20 8 11 1028.3 1028.2 0.0
25/06:00pm 16.3 12.2 8.8 61 3.8 SW 20 28 11 15 1027.8 1027.7 0.0
25/05:30pm 16.7 12.2 8.4 58 4.2 SW 22 30 12 16 1027.7 1027.6 0.0
25/05:00pm 18.0 13.1 8.6 54 4.9 SW 24 32 13 17 1027.6 1027.5 0.0
25/04:30pm 18.7 14.4 9.5 55 4.8 SW 22 32 12 17 1027.7 1027.6 0.0
25/04:00pm 18.5 13.2 8.5 52 5.2 SW 26 39 14 21 1027.7 1027.6 0.0
25/03:30pm 18.4 13.6 8.9 54 4.9 SSW 24 32 13 17 1027.9 1027.8 0.0
25/03:00pm 18.6 13.4 8.8 53 5.1 SW 26 35 14 19 1028.0 1027.9 0.0
25/02:30pm 18.9 14.5 9.1 53 5.1 SW 22 33 12 18 1028.0 1027.9 0.0
25/02:00pm 18.4 14.0 8.9 54 4.9 WSW 22 33 12 18 1028.1 1028.0 0.0
25/01:30pm 18.4 14.1 9.5 56 4.7 SW 22 30 12 16 1028.3 1028.2 0.0
25/01:00pm 18.7 14.4 9.5 55 4.9 WSW 22 28 12 15 1028.5 1028.4 0.0
25/12:30pm 18.6 15.1 10.2 58 4.5 SW 19 26 10 14 1028.8 1028.7 0.0
25/12:00pm 17.5 14.7 11.5 68 3.2 WSW 17 24 9 13 1029.3 1029.2 0.0
25/11:30am 17.7 15.5 10.8 64 3.7 WSW 13 20 7 11 1029.8 1029.7 0.0
25/11:00am 16.2 15.3 11.2 72 2.7 SW 7 13 4 7 1030.2 1030.1 0.0
25/10:30am 14.9 14.2 11.3 79 1.9 NNE 6 7 3 4 1030.5 1030.4 0.0
25/10:14am 14.4 13.4 12.4 88 1.1 NNE 9 13 5 7 1030.6 1030.5 0.0
25/10:00am 13.0 11.7 11.2 89 0.9 NNE 9 13 5 7 1030.7 1030.6 0.0
25/09:30am 11.0 8.9 9.8 92 0.6 N 11 15 6 8 1030.7 1030.6 0.0
25/09:00am 10.4 8.6 9.3 93 0.5 N 9 11 5 6 1030.9 1030.8 0.4
25/08:30am 9.8 8.3 9.0 95 0.4 NNE 7 9 4 5 1030.6 1030.5 0.4
25/08:26am 9.3 7.6 8.4 94 0.4 NNE 7 9 4 5 1030.5 1030.4 0.4
25/08:23am 9.3 7.6 8.4 94 0.4 NNE 7 9 4 5 1030.5 1030.4 0.4
25/08:00am 8.8 8.2 7.6 92 0.6 CALM 0 7 0 4 1030.4 1030.3 0.2
25/07:50am 8.6 8.0 7.2 91 0.7 CALM 0 0 0 0 1030.2 1030.1 0.0
25/07:38am 8.3 7.6 7.1 92 0.6 CALM 0 0 0 0 1030.0 1029.9 0.0
25/07:30am 8.1 7.5 7.2 94 0.4 CALM 0 0 0 0 1029.9 1029.8 0.0
25/07:00am 6.4 5.4 5.4 93 0.4 CALM 0 0 0 0 1029.6 1029.5 0.0
25/06:30am 6.2 5.1 5.2 93 0.4 CALM 0 0 0 0 1029.4 1029.3 0.0
25/06:00am 6.0 4.8 4.5 90 0.6 CALM 0 0 0 0 1029.1 1029.0 0.0
25/05:30am 7.0 5.3 5.8 92 0.5 ENE 4 11 2 6 1029.0 1028.9 0.0
25/05:00am 5.9 3.5 4.4 90 0.6 ENE 6 7 3 4 1028.9 1028.8 0.0
25/04:30am 6.3 5.2 5.1 92 0.5 CALM 0 0 0 0 1028.8 1028.7 0.0
25/04:00am 6.1 4.9 4.7 91 0.6 CALM 0 0 0 0 1028.4 1028.3 0.0
25/03:30am 6.5 5.3 4.5 87 0.9 CALM 0 0 0 0 1028.4 1028.3 0.0
25/03:00am 6.9 5.4 4.9 87 0.9 S 2 7 1 4 1028.5 1028.4 0.0
25/02:30am 8.6 7.7 5.9 83 1.2 CALM 0 0 0 0 1028.5 1028.4 0.0
25/02:00am 8.1 5.5 6.1 87 0.9 S 9 9 5 5 1028.8 1028.7 0.0
25/01:30am 9.2 8.5 6.8 85 1.1 CALM 0 0 0 0 1029.0 1028.9 0.0
25/01:00am 8.9 8.1 6.5 85 1.1 CALM 0 0 0 0 1029.0 1028.9 0.0
25/12:30am 8.4 7.5 6.0 85 1.1 CALM 0 0 0 0 1029.0 1028.9 0.0
25/12:00am 8.4 7.6 6.7 89 0.8 CALM 0 0 0 0 1029.0 1028.9 0.0
 
Date/Time
CST
Temp
°C
App
Temp
°C
Dew
Point
°C
Rel
Hum
%
Delta-T
°C
Wind Press
QNH
hPa
Press
MSL
hPa
Rain since
9am
mm
Dir  Spd
km/h
Gust
km/h
Spd
kts
Gust
kts
24/11:30pm 7.1 5.9 4.4 83 1.2 CALM 0 0 0 0 1029.1 1029.0 0.0
24/11:00pm 8.3 7.3 5.4 82 1.3 CALM 0 0 0 0 1029.4 1029.3 0.0
24/10:30pm 8.6 6.5 5.7 82 1.3 SSW 6 7 3 4 1029.6 1029.5 0.0
24/10:00pm 8.1 5.6 4.9 80 1.4 S 7 7 4 4 1029.5 1029.4 0.0
24/09:30pm 8.8 6.0 5.2 78 1.6 S 9 9 5 5 1029.5 1029.4 0.0
24/09:00pm 9.0 6.5 4.8 75 1.9 SSE 7 9 4 5 1029.4 1029.3 0.0
24/08:30pm 9.9 7.5 5.1 72 2.1 S 7 9 4 5 1029.3 1029.2 0.0
24/08:00pm 10.1 6.9 4.9 70 2.3 SSW 11 11 6 6 1029.2 1029.1 0.0
24/07:30pm 11.3 7.7 5.2 66 2.8 S 13 15 7 8 1029.0 1028.9 0.0
24/07:00pm 11.3 7.7 5.0 65 2.9 SSE 13 17 7 9 1028.7 1028.6 0.0
24/06:30pm 12.3 8.3 5.0 61 3.3 S 15 17 8 9 1028.2 1028.1 0.0
24/06:00pm 14.1 9.8 5.2 55 4.1 S 17 24 9 13 1028.0 1027.9 0.0
24/05:30pm 15.1 10.4 5.0 51 4.7 S 19 24 10 13 1027.8 1027.7 0.0
24/05:00pm 15.5 9.8 5.1 50 4.9 SSW 24 35 13 19 1027.5 1027.4 0.0
24/04:30pm 16.9 11.3 5.2 46 5.6 S 24 30 13 16 1027.2 1027.1 0.0
24/04:00pm 17.6 11.6 5.5 45 5.9 SW 26 35 14 19 1027.0 1026.9 0.0
24/03:30pm 17.1 11.6 6.0 48 5.4 SW 24 35 13 19 1026.9 1026.8 0.0
24/03:00pm 17.3 12.6 5.9 47 5.5 SW 20 30 11 16 1027.0 1026.9 0.0
24/02:30pm 17.1 12.7 6.6 50 5.1 SW 19 24 10 13 1027.1 1027.0 0.0
24/02:00pm 17.5 13.5 4.8 43 6.1 SW 15 24 8 13 1026.9 1026.8 0.0
24/01:30pm 17.5 13.2 5.4 45 5.8 S 17 24 9 13 1027.1 1027.0 0.0
24/01:00pm 16.4 10.2 6.0 50 5.0 SSW 28 37 15 20 1027.3 1027.2 0.0
24/12:30pm 16.6 11.8 7.3 54 4.6 SW 22 32 12 17 1027.7 1027.6 0.0
24/12:09pm 17.2 12.6 5.5 46 5.6 S 19 39 10 21 1027.9 1027.8 0.0
24/12:00pm 18.8 15.6 4.9 40 6.7 S 11 22 6 12 1028.0 1027.9 0.0
24/11:30am 18.2 13.1 4.0 39 6.7 S 20 30 11 16 1028.2 1028.1 0.0
24/11:00am 17.9 12.3 5.5 44 6.0 S 24 33 13 18 1028.2 1028.1 0.0
24/10:30am 17.7 12.5 5.6 45 5.8 SSW 22 33 12 18 1028.5 1028.4 0.0
24/10:00am 16.5 12.0 6.1 50 5.1 S 19 28 10 15 1028.6 1028.5 0.0
24/09:30am 14.5 10.7 5.8 56 4.1 SSE 15 22 8 12 1028.5 1028.4 0.0
24/09:00am 14.4 8.6 6.3 58 3.9 S 26 35 14 19 1028.8 1028.7 0.0
24/08:30am 12.9 10.8 6.7 66 3.0 SW 7 13 4 7 1028.2 1028.1 0.0
24/08:00am 10.9 9.7 6.6 75 2.0 ESE 2 7 1 4 1028.0 1027.9 0.0
24/07:30am 7.0 5.0 4.3 83 1.2 SSE 4 9 2 5 1027.2 1027.1 0.0
24/07:00am 6.1 4.7 3.8 85 1.0 CALM 0 0 0 0 1026.6 1026.5 0.0
24/06:30am 6.6 5.3 3.9 83 1.1 CALM 0 0 0 0 1026.2 1026.1 0.0
24/06:00am 8.5 7.5 5.6 82 1.3 CALM 0 0 0 0 1025.8 1025.7 0.0
24/05:30am 7.2 5.9 4.3 82 1.2 CALM 0 0 0 0 1025.8 1025.7 0.0
24/05:00am 8.2 6.2 4.2 76 1.7 SE 4 6 2 3 1025.5 1025.4 0.0
24/04:30am 7.4 4.6 2.9 73 1.9 SE 7 9 4 5 1025.5 1025.4 0.0
24/04:00am 8.4 4.9 3.7 72 2.0 SSE 11 13 6 7 1025.4 1025.3 0.0
24/03:30am 9.3 5.5 3.9 69 2.3 S 13 17 7 9 1025.1 1025.0 0.0
24/03:00am 9.7 6.3 3.9 67 2.5 SSE 11 15 6 8 1025.1 1025.0 0.0
24/02:30am 10.0 6.6 4.2 67 2.6 S 11 15 6 8 1025.1 1025.0 0.0
24/02:00am 11.2 7.5 4.7 64 2.9 S 13 20 7 11 1024.9 1024.8 0.0
24/01:30am 10.8 7.2 4.9 67 2.7 S 13 17 7 9 1024.9 1024.8 0.0
24/01:00am 10.8 7.4 4.0 63 3.0 S 11 15 6 8 1024.8 1024.7 0.0
24/12:30am 13.0 9.7 4.7 57 3.8 S 11 17 6 9 1024.5 1024.4 0.0
24/12:00am 13.5 7.6 4.1 53 4.3 SSW 24 35 13 19 1024.2 1024.1 0.0
 
Date/Time
CST
Temp
°C
App
Temp
°C
Dew
Point
°C
Rel
Hum
%
Delta-T
°C
Wind Press
QNH
hPa
Press
MSL
hPa
Rain since
9am
mm
Dir  Spd
km/h
Gust
km/h
Spd
kts
Gust
kts
23/11:30pm 13.4 8.5 5.1 57 3.8 SW 20 30 11 16 1024.2 1024.1 0.0
23/11:00pm 13.6 8.4 5.5 58 3.8 SSW 22 33 12 18 1024.0 1023.9 0.0
23/10:30pm 13.9 7.7 6.3 60 3.6 SW 28 41 15 22 1024.0 1023.9 0.0
23/10:00pm 14.2 8.4 6.1 58 3.9 SSW 26 41 14 22 1023.9 1023.8 0.0
23/09:30pm 14.1 8.9 7.2 63 3.4 SW 24 43 13 23 1023.6 1023.5 0.0
23/09:00pm 14.1 9.0 7.6 65 3.2 SSW 24 32 13 17 1023.2 1023.1 0.0
23/08:30pm 14.1 8.0 8.3 68 2.9 SSW 30 43 16 23 1022.9 1022.8 0.0
23/08:00pm 14.9 9.3 7.0 59 3.9 SW 26 37 14 20 1022.4 1022.3 0.0
23/07:30pm 14.8 9.3 7.6 62 3.6 SW 26 41 14 22 1022.3 1022.2 0.0
23/07:22pm 14.7 8.8 7.3 61 3.6 SW 28 46 15 25 1022.2 1022.1 0.0
23/07:00pm 15.1 8.6 8.1 63 3.5 SW 32 43 17 23 1021.7 1021.6 0.0
23/06:30pm 15.0 9.8 8.9 67 3.1 SW 26 37 14 20 1021.1 1021.1 0.0
23/06:00pm 15.3 10.0 9.9 70 2.8 SSW 28 39 15 21 1020.5 1020.5 0.0
23/05:45pm 15.4 10.5 11.2 76 2.2 SSW 28 39 15 21 1020.1 1020.1 0.0
23/05:30pm 15.7 11.1 10.9 73 2.5 SSW 26 39 14 21 1019.9 1019.9 0.0
23/05:00pm 15.9 10.6 11.1 73 2.6 SSW 30 43 16 23 1019.4 1019.4 0.0
23/04:30pm 16.8 10.8 12.1 74 2.6 SSW 35 46 19 25 1019.1 1019.1 0.0
23/04:00pm 17.6 10.3 12.9 74 2.6 SSW 43 56 23 30 1018.5 1018.5 0.0
23/03:48pm 18.2 13.0 13.5 74 2.7 SW 33 52 18 28 1018.2 1018.2 0.0
23/03:40pm 19.2 14.3 13.8 71 3.1 SW 32 46 17 25 1018.1 1018.1 0.0
23/03:30pm 19.5 14.7 14.7 74 2.8 SW 33 46 18 25 1018.1 1018.1 0.0
23/03:07pm 20.7 16.3 12.9 61 4.4 SW 28 46 15 25 1017.8 1017.8 0.0
23/03:00pm 20.9 16.6 13.1 61 4.4 WSW 28 35 15 19 1017.7 1017.7 0.0
23/02:30pm 21.6 17.6 11.9 54 5.4 SW 24 32 13 17 1017.3 1017.3 0.0
23/02:00pm 22.6 17.4 10.1 45 6.8 WSW 28 37 15 20 1016.9 1016.9 0.0
23/01:30pm 23.1 16.7 9.5 42 7.3 WSW 33 43 18 23 1017.2 1017.2 0.0
23/01:00pm 23.7 17.3 9.3 40 7.8 W 33 44 18 24 1017.2 1017.2 0.0
23/12:30pm 24.9 19.0 10.4 40 8.0 WNW 32 44 17 24 1017.5 1017.5 0.0
23/12:22pm 25.7 19.1 9.9 37 8.7 WNW 35 54 19 29 1017.5 1017.5 0.0
23/12:00pm 26.0 20.4 8.9 34 9.3 NW 28 41 15 22 1017.4 1017.4 0.0
23/11:30am 25.4 19.3 8.4 34 9.1 WNW 30 41 16 22 1017.7 1017.7 0.0
23/11:00am 27.2 20.3 6.6 27 10.8 NNW 32 48 17 26 1017.6 1017.6 0.0
23/10:47am 26.6 20.1 6.6 28 10.5 NNW 30 48 16 26 1017.7 1017.7 0.0
23/10:30am 26.6 20.6 7.1 29 10.3 NNW 28 39 15 21 1018.0 1018.0 0.0
23/10:00am 25.2 19.5 6.9 31 9.6 NNW 26 35 14 19 1018.3 1018.3 0.0
23/09:30am 23.9 19.2 6.2 32 9.0 N 20 32 11 17 1018.7 1018.7 0.0
23/09:00am 21.5 18.0 7.0 39 7.4 N 15 20 8 11 1019.1 1019.1 0.0
23/08:30am 19.6 15.1 6.0 41 6.7 N 19 24 10 13 1019.3 1019.3 0.0
23/08:00am 19.4 13.8 5.5 40 6.8 N 24 35 13 19 1019.2 1019.2 0.0
23/07:30am 19.0 14.1 5.1 40 6.7 N 20 28 11 15 1018.9 1018.9 0.0
23/07:00am 17.7 12.7 4.6 42 6.2 NNE 20 28 11 15 1018.6 1018.6 0.0
23/06:30am 17.4 12.4 4.7 43 6.0 NNE 20 24 11 13 1018.7 1018.7 0.0
23/06:00am 17.7 12.7 4.6 42 6.2 N 20 26 11 14 1018.7 1018.7 0.0
23/05:30am 17.4 12.6 4.7 43 6.0 NNE 19 24 10 13 1018.7 1018.7 0.0
23/05:00am 17.0 12.6 4.7 44 5.8 N 17 22 9 12 1018.6 1018.6 0.0
23/04:30am 16.6 13.3 4.6 45 5.6 N 11 15 6 8 1018.5 1018.5 0.0
23/04:00am 17.4 13.0 5.0 44 5.9 N 17 22 9 12 1018.3 1018.3 0.0
23/03:42am 15.1 11.4 6.4 56 4.2 NNE 15 19 8 10 1018.4 1018.4 0.0
23/03:30am 9.9 6.9 4.1 67 2.6 NNE 9 13 5 7 1018.4 1018.4 0.0
23/03:00am 9.1 6.1 3.9 70 2.3 NE 9 11 5 6 1018.5 1018.5 0.0
23/02:30am 9.6 7.2 4.2 69 2.4 NE 6 9 3 5 1018.8 1018.8 0.0
23/02:00am 10.8 9.4 3.8 62 3.1 CALM 0 0 0 0 1019.2 1019.2 0.0
23/01:30am 11.5 8.3 3.0 56 3.7 N 9 11 5 6 1019.3 1019.3 0.0
23/01:00am 11.6 8.5 3.6 58 3.5 NNE 9 13 5 7 1019.4 1019.4 0.0
23/12:30am 10.3 7.7 4.2 66 2.7 NE 7 11 4 6 1019.3 1019.3 0.0
23/12:00am 10.6 9.4 4.7 67 2.6 CALM 0 0 0 0 1019.6 1019.6 0.0
 
Date/Time
CST
Temp
°C
App
Temp
°C
Dew
Point
°C
Rel
Hum
%
Delta-T
°C
Wind Press
QNH
hPa
Press
MSL
hPa
Rain since
9am
mm
Dir  Spd
km/h
Gust
km/h
Spd
kts
Gust
kts
22/11:30pm 9.6 7.0 4.4 70 2.3 NNW 7 9 4 5 1020.0 1020.0 0.0
22/11:00pm 11.1 8.6 4.6 64 2.9 NE 7 9 4 5 1020.3 1020.3 0.0
22/10:30pm 10.4 7.8 4.3 66 2.7 NE 7 9 4 5 1020.8 1020.8 0.0
22/10:00pm 11.5 9.0 3.8 59 3.4 NNE 6 11 3 6 1021.0 1021.0 0.0
22/09:30pm 12.3 9.4 4.5 59 3.5 ENE 9 11 5 6 1021.2 1021.2 0.0
22/09:00pm 11.8 9.4 4.3 60 3.4 ESE 6 7 3 4 1021.4 1021.4 0.0

Latest Capital City Observations: Canberra | Sydney | Melbourne | Brisbane | Adelaide | Perth | Hobart | Darwin

Other formats

Comma delimited format used in spreadsheet applications
http://www.bom.gov.au/fwo/IDS60901/IDS60901.95677.axf

JavaScript Object Notation format (JSON) in row-major order
http://www.bom.gov.au/fwo/IDS60901/IDS60901.95677.json

Data quality

Most of these data are generated automatically and are frequently updated. Quality checks on data are not normally performed. It is possible for incorrect values to appear. Refer to information at About Latest Weather Observations and please check the disclaimer before using these data.